West Durham, New York
Current Conditions -  °F | °C
As of 6:10 AM on Thursday 23 Oct 2014 (Local Time) from KALB Reporting Station
Moderate Rain Moderate Rain  
Wind Chill: 41°   Ceiling: 1000
Heat Index: 46°   Visibility: 3mi
Dew Point: 43°   Wind: 9mph
Humidity: 89%   Direction: 360°N
Pressure: 29.86"   Gusts: 22mph
Location:  42.4034°N, 74.1978°W
Report Text: KALB 231010Z 36008G19KT 3SM RA BR BKN010 BKN026 OVC047 08/06 A2986 RMK AO2 P0012 T00780061
Loading
Personal Weather Stations






























Interactive Weather Map
Tropical Storm Tracking
New forecast layout! Learn more

10-Day Weather Forecast

Advertisements
Track Severe Weather on mobile